createdAt,value
2022-10-30T00:00:55.309Z,15.07
2022-10-30T00:05:58.060Z,15.03
2022-10-30T00:11:06.547Z,15.12
2022-10-30T00:16:11.050Z,15.16
2022-10-30T00:21:16.280Z,15.19
2022-10-30T00:26:20.861Z,15.24
2022-10-30T00:31:25.203Z,15.25
2022-10-30T00:36:27.970Z,15.26
2022-10-30T00:41:30.875Z,15.27
2022-10-30T00:46:38.715Z,15.26
2022-10-30T00:51:45.232Z,15.19
2022-10-30T00:56:50.104Z,15.22
2022-10-30T01:01:55.498Z,15.15
2022-10-30T01:07:01.004Z,15.15
2022-10-30T01:12:03.869Z,15.14
2022-10-30T01:17:39.200Z,15.18
2022-10-30T01:22:56.094Z,15.19
2022-10-30T01:28:05.843Z,15.18
2022-10-30T01:33:24.690Z,15.20
2022-10-30T01:38:33.003Z,15.18
2022-10-30T01:43:37.775Z,15.19
2022-10-30T01:48:58.862Z,15.19
2022-10-30T01:54:10.139Z,15.20
2022-10-30T01:59:19.061Z,15.18
2022-10-30T02:04:24.336Z,15.13
2022-10-30T02:09:28.343Z,15.09
2022-10-30T02:14:34.313Z,15.06
2022-10-30T02:19:41.116Z,15.05
2022-10-30T02:24:45.467Z,15.02
2022-10-30T02:29:49.723Z,14.99
2022-10-30T02:34:52.475Z,14.97
2022-10-30T02:39:56.598Z,14.95
2022-10-30T02:44:59.611Z,14.95
2022-10-30T02:50:02.434Z,14.94
2022-10-30T02:55:07.350Z,14.92
2022-10-30T03:00:11.819Z,14.85
2022-10-30T03:05:15.738Z,14.80
2022-10-30T03:10:19.881Z,14.77
2022-10-30T03:15:22.712Z,14.74
2022-10-30T03:20:25.535Z,14.68
2022-10-30T03:25:30.855Z,14.65
2022-10-30T03:30:35.411Z,14.58
2022-10-30T03:35:44.693Z,14.49
2022-10-30T03:40:48.990Z,14.51
2022-10-30T03:45:53.850Z,14.53
2022-10-30T03:50:57.807Z,14.48
2022-10-30T03:56:03.483Z,14.44
2022-10-30T04:01:14.721Z,14.42
2022-10-30T04:06:22.755Z,14.41
2022-10-30T04:11:27.009Z,14.32
2022-10-30T04:16:29.843Z,14.31
2022-10-30T04:21:36.065Z,14.40
2022-10-30T04:26:40.266Z,14.40
2022-10-30T04:31:43.088Z,14.41
2022-10-30T04:36:45.891Z,14.41
2022-10-30T04:41:50.341Z,14.36
2022-10-30T04:46:59.920Z,14.36
2022-10-30T04:52:02.714Z,14.34
2022-10-30T04:57:07.079Z,14.24
2022-10-30T05:02:10.589Z,14.17
2022-10-30T05:07:14.206Z,14.07
2022-10-30T05:12:19.468Z,13.96
2022-10-30T05:22:36.599Z,13.82
2022-10-30T05:27:40.796Z,13.75
2022-10-30T05:32:43.838Z,13.68
2022-10-30T05:37:46.644Z,13.58
2022-10-30T05:42:52.440Z,13.53
2022-10-30T05:47:56.612Z,13.53
2022-10-30T05:53:00.590Z,13.44
2022-10-30T05:58:06.318Z,13.37
2022-10-30T06:03:14.503Z,13.38
2022-10-30T06:08:19.760Z,13.38
2022-10-30T06:13:25.956Z,13.36
2022-10-30T06:18:58.356Z,13.33
2022-10-30T06:24:04.240Z,13.35
2022-10-30T06:29:28.609Z,13.38
2022-10-30T06:34:31.587Z,13.36
2022-10-30T06:39:34.404Z,13.38
2022-10-30T06:45:05.292Z,13.37
2022-10-30T06:50:12.446Z,13.40
2022-10-30T06:55:15.878Z,13.62
2022-10-30T07:00:28.579Z,13.99
2022-10-30T07:05:49.591Z,14.41
2022-10-30T07:10:52.634Z,14.77
2022-10-30T07:16:05.395Z,15.15
2022-10-30T07:21:12.549Z,15.43
2022-10-30T07:26:17.120Z,15.69
2022-10-30T07:31:34.952Z,15.43
2022-10-30T07:37:03.946Z,15.22
2022-10-30T07:42:19.312Z,15.56
2022-10-30T07:47:42.596Z,16.01
2022-10-30T07:52:59.504Z,16.36
2022-10-30T07:58:05.631Z,16.89
2022-10-30T08:03:28.493Z,17.31
2022-10-30T08:08:42.084Z,17.56
2022-10-30T08:14:01.564Z,17.88
2022-10-30T08:19:05.939Z,18.36
2022-10-30T08:24:09.334Z,18.46
2022-10-30T08:29:14.915Z,18.65
2022-10-30T08:34:21.569Z,18.98
2022-10-30T08:39:28.463Z,19.26
2022-10-30T08:44:38.718Z,19.51
2022-10-30T08:50:13.122Z,20.15
2022-10-30T08:55:16.307Z,20.29
2022-10-30T09:00:19.621Z,20.56
2022-10-30T09:05:42.146Z,20.95
2022-10-30T09:11:05.780Z,20.90
2022-10-30T09:16:09.290Z,21.12
2022-10-30T09:21:15.937Z,21.28
2022-10-30T09:26:22.246Z,21.57
2022-10-30T09:31:37.231Z,21.87
2022-10-30T09:36:43.947Z,21.60
2022-10-30T09:42:16.235Z,21.73
2022-10-30T09:47:39.388Z,22.42
2022-10-30T09:52:53.197Z,22.59
2022-10-30T09:58:05.245Z,22.65
2022-10-30T10:03:23.544Z,22.46
2022-10-30T10:08:53.144Z,22.51
2022-10-30T10:14:40.846Z,22.59
2022-10-30T10:19:50.991Z,23.05
2022-10-30T10:24:56.404Z,23.18
2022-10-30T10:30:04.479Z,23.52
2022-10-30T10:35:33.590Z,24.59
2022-10-30T10:40:53.443Z,24.78
2022-10-30T10:46:10.909Z,24.63
2022-10-30T10:51:19.071Z,25.74
2022-10-30T10:56:28.964Z,26.12
2022-10-30T11:01:38.214Z,26.38
2022-10-30T11:06:44.744Z,26.60
2022-10-30T11:11:50.195Z,26.87
2022-10-30T11:17:03.373Z,26.10
2022-10-30T11:22:18.157Z,26.70
2022-10-30T11:27:28.403Z,27.01
2022-10-30T11:32:33.453Z,27.36
2022-10-30T11:37:38.100Z,27.60
2022-10-30T11:42:45.065Z,27.45
2022-10-30T11:47:48.530Z,27.51
2022-10-30T11:52:55.173Z,28.21
2022-10-30T11:58:00.876Z,28.49
2022-10-30T12:03:04.679Z,28.16
2022-10-30T12:08:22.535Z,28.27
2022-10-30T12:13:28.147Z,27.18
2022-10-30T12:18:38.124Z,26.44
2022-10-30T12:23:41.599Z,26.09
2022-10-30T12:28:52.296Z,26.10
2022-10-30T12:34:06.229Z,25.93
2022-10-30T12:39:15.199Z,25.96
2022-10-30T12:44:23.286Z,25.98
2022-10-30T12:49:32.216Z,26.19
2022-10-30T12:54:43.012Z,26.01
2022-10-30T12:59:59.453Z,25.96
2022-10-30T13:05:05.299Z,25.49
2022-10-30T13:10:23.048Z,24.63
2022-10-30T13:15:30.891Z,24.06
2022-10-30T13:20:35.715Z,24.14
2022-10-30T13:25:49.340Z,24.44
2022-10-30T13:31:01.521Z,24.23
2022-10-30T13:36:11.670Z,24.30
2022-10-30T13:41:29.431Z,24.35
2022-10-30T13:46:52.372Z,24.38
2022-10-30T13:52:02.332Z,24.32
2022-10-30T13:57:15.645Z,24.16
2022-10-30T14:02:33.606Z,23.82
2022-10-30T14:07:43.812Z,23.46
2022-10-30T14:13:15.048Z,22.85
2022-10-30T14:18:35.588Z,22.61
2022-10-30T14:23:39.505Z,22.28
2022-10-30T14:28:44.590Z,21.99
2022-10-30T14:33:50.546Z,21.77
2022-10-30T14:39:02.152Z,21.51
2022-10-30T14:44:26.269Z,21.32
2022-10-30T14:49:47.486Z,21.13
2022-10-30T14:54:59.664Z,20.96
2022-10-30T15:00:39.781Z,20.66
2022-10-30T15:05:51.419Z,20.49
2022-10-30T15:11:17.637Z,20.39
2022-10-30T15:16:23.806Z,20.24
2022-10-30T15:21:29.777Z,20.11
2022-10-30T15:26:37.148Z,19.89
2022-10-30T15:31:39.947Z,19.73
2022-10-30T15:36:44.060Z,19.58
2022-10-30T15:41:48.988Z,19.38
2022-10-30T15:46:54.719Z,19.19
2022-10-30T15:52:00.791Z,18.97
2022-10-30T15:57:43.197Z,18.76
2022-10-30T16:02:27.894Z,18.63
2022-10-30T16:07:32.362Z,18.55
2022-10-30T16:12:36.455Z,18.48
2022-10-30T16:17:39.341Z,18.39
2022-10-30T16:22:43.695Z,18.32
2022-10-30T16:27:47.460Z,18.23
2022-10-30T16:32:54.544Z,18.12
2022-10-30T16:38:02.595Z,18.06
2022-10-30T16:43:05.606Z,17.92
2022-10-30T16:53:24.223Z,17.89
2022-10-30T16:58:30.684Z,17.80
2022-10-30T17:03:38.245Z,17.70
2022-10-30T17:08:43.957Z,17.70
2022-10-30T17:14:03.057Z,17.69
2022-10-30T17:19:40.351Z,17.65
2022-10-30T17:24:44.504Z,17.60
2022-10-30T17:29:47.339Z,17.52
2022-10-30T17:35:00.476Z,17.41
2022-10-30T17:40:05.693Z,17.31
2022-10-30T17:45:13.429Z,17.26
2022-10-30T17:50:16.247Z,17.21
2022-10-30T17:55:25.686Z,17.12
2022-10-30T18:00:28.519Z,17.03
2022-10-30T18:05:33.678Z,16.97
2022-10-30T18:10:37.823Z,16.94
2022-10-30T18:15:43.756Z,16.92
2022-10-30T18:20:46.529Z,16.87
2022-10-30T18:25:51.653Z,16.77
2022-10-30T18:30:56.761Z,16.75
2022-10-30T18:36:00.387Z,16.76
2022-10-30T18:41:05.644Z,16.75
2022-10-30T18:46:11.270Z,16.96
2022-10-30T18:51:18.030Z,17.25
2022-10-30T18:56:24.031Z,17.31
2022-10-30T19:01:27.011Z,17.24
2022-10-30T19:06:30.291Z,17.22
2022-10-30T19:11:36.350Z,17.26
2022-10-30T19:16:40.356Z,17.19
2022-10-30T19:21:43.290Z,17.11
2022-10-30T19:26:47.451Z,17.08
2022-10-30T19:31:50.284Z,16.95
2022-10-30T19:36:53.108Z,16.99
2022-10-30T19:41:57.628Z,16.94
2022-10-30T19:47:00.464Z,17.11
2022-10-30T19:52:03.255Z,17.02
2022-10-30T19:57:13.250Z,16.87
2022-10-30T20:02:16.200Z,16.88
2022-10-30T20:07:19.039Z,16.70
2022-10-30T20:12:23.305Z,16.50
2022-10-30T20:17:26.078Z,16.57
2022-10-30T20:22:28.900Z,16.47
2022-10-30T20:27:33.160Z,16.45
2022-10-30T20:32:36.010Z,16.42
2022-10-30T20:37:38.895Z,16.09
2022-10-30T20:42:43.767Z,16.20
2022-10-30T20:47:47.631Z,16.17
2022-10-30T20:52:50.474Z,16.03
2022-10-30T20:57:54.597Z,16.03
2022-10-30T21:02:57.366Z,15.84
2022-10-30T21:08:01.128Z,15.89
2022-10-30T21:13:08.782Z,16.08
2022-10-30T21:18:13.617Z,16.13
2022-10-30T21:23:16.334Z,15.93
2022-10-30T21:28:20.519Z,15.85
2022-10-30T21:33:23.303Z,15.80
2022-10-30T21:38:25.995Z,15.78
2022-10-30T21:43:30.179Z,15.79
2022-10-30T21:48:32.894Z,15.74
2022-10-30T21:53:35.775Z,15.70
2022-10-30T21:58:40.016Z,15.58
2022-10-30T22:03:42.858Z,15.60
2022-10-30T22:08:46.653Z,15.50
2022-10-30T22:13:54.599Z,15.56
2022-10-30T22:18:57.761Z,15.43
2022-10-30T22:24:01.264Z,15.34
2022-10-30T22:29:05.688Z,15.31
2022-10-30T22:34:10.882Z,15.04
2022-10-30T22:39:14.887Z,15.19
2022-10-30T22:44:19.750Z,15.02
2022-10-30T22:49:22.863Z,14.92
2022-10-30T22:54:26.098Z,14.93
2022-10-30T22:59:30.754Z,14.99
2022-10-30T23:04:33.773Z,14.96
2022-10-30T23:09:36.821Z,14.96
2022-10-30T23:14:41.342Z,14.82
2022-10-30T23:19:44.568Z,14.58
2022-10-30T23:24:49.074Z,14.63
2022-10-30T23:29:53.678Z,14.68
2022-10-30T23:34:56.965Z,14.64
2022-10-30T23:39:59.966Z,14.55
2022-10-30T23:45:06.398Z,14.47
2022-10-30T23:50:10.295Z,14.42
2022-10-30T23:55:13.355Z,14.38
